createdAt,value
2022-10-03T00:00:31.820Z,93.85
2022-10-03T00:03:22.700Z,94.25
2022-10-03T00:06:21.626Z,93.35
2022-10-03T00:09:01.378Z,94.31
2022-10-03T00:12:05.012Z,93.95
2022-10-03T00:14:49.717Z,94.23
2022-10-03T00:17:28.185Z,93.68
2022-10-03T00:20:13.474Z,93.63
2022-10-03T00:23:15.897Z,94.30
2022-10-03T00:26:01.114Z,93.77
2022-10-03T00:28:48.493Z,94.15
2022-10-03T00:31:25.888Z,93.74
2022-10-03T00:34:28.059Z,94.20
2022-10-03T00:37:17.012Z,93.80
2022-10-03T00:40:18.362Z,94.00
2022-10-03T00:43:11.225Z,93.70
2022-10-03T00:46:05.419Z,94.10
2022-10-03T00:49:22.365Z,94.02
2022-10-03T00:52:31.744Z,94.31
2022-10-03T00:55:01.449Z,93.83
2022-10-03T00:57:51.546Z,94.20
2022-10-03T01:00:23.548Z,94.19
2022-10-03T01:03:29.695Z,94.12
2022-10-03T01:06:39.852Z,94.17
2022-10-03T01:09:42.627Z,93.71
2022-10-03T01:12:27.171Z,93.87
2022-10-03T01:15:20.416Z,93.69
2022-10-03T01:18:15.737Z,94.05
2022-10-03T01:20:50.123Z,93.85
2022-10-03T01:23:31.143Z,94.55
2022-10-03T01:26:02.683Z,94.35
2022-10-03T01:29:13.761Z,94.57
2022-10-03T01:31:48.514Z,94.20
2022-10-03T01:34:42.948Z,94.41
2022-10-03T01:37:25.427Z,93.82
2022-10-03T01:39:57.055Z,94.00
2022-10-03T01:43:01.454Z,94.27
2022-10-03T01:45:55.832Z,94.13
2022-10-03T01:48:45.910Z,93.98
2022-10-03T01:51:23.935Z,93.93
2022-10-03T01:54:19.281Z,93.62
2022-10-03T01:57:01.397Z,93.94
2022-10-03T01:59:54.905Z,94.03
2022-10-03T02:02:36.559Z,94.26
2022-10-03T02:05:20.679Z,93.54
2022-10-03T02:08:19.599Z,93.69
2022-10-03T02:11:09.609Z,94.15
2022-10-03T02:14:08.263Z,93.89
2022-10-03T02:16:58.064Z,94.29
2022-10-03T02:19:37.504Z,94.11
2022-10-03T02:22:16.737Z,94.08
2022-10-03T02:24:58.107Z,94.12
2022-10-03T02:27:38.493Z,94.23
2022-10-03T02:30:33.675Z,94.46
2022-10-03T02:34:00.752Z,93.68
2022-10-03T02:37:15.550Z,94.06
2022-10-03T02:40:06.008Z,94.27
2022-10-03T02:43:11.888Z,93.66
2022-10-03T02:45:59.197Z,93.95
2022-10-03T02:48:52.953Z,94.23
2022-10-03T02:51:41.039Z,94.05
2022-10-03T02:54:15.980Z,94.04
2022-10-03T02:57:35.504Z,94.00
2022-10-03T03:00:34.101Z,94.07
2022-10-03T03:03:46.503Z,94.39
2022-10-03T03:06:53.349Z,94.24
2022-10-03T03:09:38.050Z,94.13
2022-10-03T03:12:57.662Z,94.38
2022-10-03T03:16:00.445Z,93.63
2022-10-03T03:18:54.319Z,94.27
2022-10-03T03:21:42.031Z,94.10
2022-10-03T03:24:32.373Z,94.22
2022-10-03T03:27:01.049Z,93.59
2022-10-03T03:29:39.648Z,94.25
2022-10-03T03:32:28.655Z,94.16
2022-10-03T03:35:07.013Z,93.95
2022-10-03T03:37:50.933Z,94.14
2022-10-03T03:41:01.784Z,93.41
2022-10-03T03:43:49.905Z,93.91
2022-10-03T03:46:54.406Z,93.57
2022-10-03T03:49:44.457Z,93.71
2022-10-03T03:52:25.187Z,93.78
2022-10-03T03:55:15.810Z,94.10
2022-10-03T03:57:44.499Z,93.74
2022-10-03T04:00:54.487Z,93.71
2022-10-03T04:03:47.829Z,93.49
2022-10-03T04:06:37.198Z,93.10
2022-10-03T04:09:39.058Z,93.33
2022-10-03T04:12:12.291Z,93.37
2022-10-03T04:15:01.728Z,93.38
2022-10-03T04:18:16.959Z,93.88
2022-10-03T04:21:04.334Z,93.83
2022-10-03T04:23:52.505Z,93.76
2022-10-03T04:27:00.111Z,93.60
2022-10-03T04:29:56.625Z,93.92
2022-10-03T04:32:58.604Z,93.99
2022-10-03T04:35:51.864Z,93.88
2022-10-03T04:38:45.128Z,93.74
2022-10-03T04:41:46.068Z,93.84
2022-10-03T04:44:52.604Z,93.53
2022-10-03T04:47:43.445Z,93.56
2022-10-03T04:50:27.505Z,93.50
2022-10-03T04:53:24.948Z,93.65
2022-10-03T04:56:29.007Z,93.46
2022-10-03T04:59:22.707Z,93.41
2022-10-03T05:02:02.649Z,93.49
2022-10-03T05:04:47.373Z,93.35
2022-10-03T05:07:42.151Z,93.64
2022-10-03T05:10:51.656Z,93.47
2022-10-03T05:13:40.079Z,93.04
2022-10-03T05:16:14.989Z,93.15
2022-10-03T05:18:46.991Z,93.26
2022-10-03T05:21:37.620Z,92.87
2022-10-03T05:24:37.248Z,93.58
2022-10-03T05:27:27.323Z,93.38
2022-10-03T05:30:35.922Z,93.21
2022-10-03T05:33:14.884Z,93.21
2022-10-03T05:36:10.135Z,93.32
2022-10-03T05:39:03.702Z,93.56
2022-10-03T05:41:36.162Z,93.50
2022-10-03T05:44:18.453Z,93.30
2022-10-03T05:47:30.542Z,93.37
2022-10-03T05:50:42.661Z,93.50
2022-10-03T05:53:41.789Z,93.15
2022-10-03T05:56:41.002Z,93.64
2022-10-03T05:59:47.196Z,93.59
2022-10-03T06:02:38.338Z,93.90
2022-10-03T06:05:32.838Z,93.34
2022-10-03T06:08:42.904Z,94.01
2022-10-03T06:11:32.729Z,93.41
2022-10-03T06:15:03.760Z,93.66
2022-10-03T06:18:00.839Z,93.86
2022-10-03T06:20:57.957Z,93.55
2022-10-03T06:23:52.716Z,93.65
2022-10-03T06:26:53.697Z,93.49
2022-10-03T06:29:41.081Z,93.51
2022-10-03T06:32:24.977Z,93.30
2022-10-03T06:35:15.255Z,93.07
2022-10-03T06:37:52.753Z,93.20
2022-10-03T06:40:42.550Z,93.43
2022-10-03T06:43:35.524Z,93.21
2022-10-03T06:46:42.994Z,93.07
2022-10-03T06:49:30.052Z,93.34
2022-10-03T06:52:13.668Z,93.08
2022-10-03T06:55:19.555Z,93.38
2022-10-03T06:58:14.306Z,93.16
2022-10-03T07:00:50.767Z,93.43
2022-10-03T07:03:37.816Z,92.94
2022-10-03T07:06:15.428Z,93.08
2022-10-03T07:09:00.368Z,93.58
2022-10-03T07:12:08.529Z,93.00
2022-10-03T07:15:16.889Z,93.33
2022-10-03T07:17:54.895Z,93.05
2022-10-03T07:20:59.317Z,92.90
2022-10-03T07:23:34.233Z,92.95
2022-10-03T07:26:40.392Z,92.80
2022-10-03T07:29:09.172Z,92.67
2022-10-03T07:31:50.500Z,92.80
2022-10-03T07:34:21.908Z,93.25
2022-10-03T07:37:24.757Z,93.04
2022-10-03T07:40:27.591Z,93.17
2022-10-03T07:43:40.651Z,93.34
2022-10-03T07:46:30.336Z,93.25
2022-10-03T07:49:31.674Z,93.17
2022-10-03T07:52:39.964Z,93.68
2022-10-03T07:55:32.409Z,93.58
2022-10-03T07:58:21.228Z,93.70
2022-10-03T08:01:16.994Z,93.77
2022-10-03T08:03:55.025Z,93.56
2022-10-03T08:06:45.472Z,93.48
2022-10-03T08:09:37.087Z,93.53
2022-10-03T08:12:36.146Z,93.38
2022-10-03T08:15:47.942Z,93.38
2022-10-03T08:18:31.789Z,93.34
2022-10-03T08:21:02.943Z,93.63
2022-10-03T08:23:38.042Z,93.70
2022-10-03T08:26:09.826Z,93.12
2022-10-03T08:29:09.484Z,93.63
2022-10-03T08:32:15.390Z,93.37
2022-10-03T08:35:02.497Z,93.77
2022-10-03T08:38:08.639Z,93.48
2022-10-03T08:40:46.205Z,93.81
2022-10-03T08:43:36.480Z,93.90
2022-10-03T08:46:42.393Z,93.65
2022-10-03T08:49:19.435Z,93.68
2022-10-03T08:52:01.204Z,93.77
2022-10-03T08:54:52.527Z,93.96
2022-10-03T08:57:51.872Z,93.88
2022-10-03T09:00:30.776Z,93.92
2022-10-03T09:03:36.770Z,93.49
2022-10-03T09:06:25.258Z,94.06
2022-10-03T09:09:36.216Z,94.02
2022-10-03T09:12:33.029Z,93.92
2022-10-03T09:15:53.219Z,93.49
2022-10-03T09:18:46.781Z,93.72
2022-10-03T09:21:31.646Z,94.01
2022-10-03T09:24:28.546Z,93.97
2022-10-03T09:27:21.004Z,93.82
2022-10-03T09:30:05.417Z,94.06
2022-10-03T09:32:55.582Z,93.73
2022-10-03T09:35:27.762Z,93.52
2022-10-03T09:38:02.494Z,93.74
2022-10-03T09:41:01.825Z,94.24
2022-10-03T09:43:36.824Z,93.85
2022-10-03T09:46:17.654Z,94.02
2022-10-03T09:49:28.213Z,93.62
2022-10-03T09:52:08.912Z,93.93
2022-10-03T09:55:13.279Z,93.96
2022-10-03T09:57:55.403Z,93.92
2022-10-03T10:00:33.842Z,94.15
2022-10-03T10:03:17.841Z,94.22
2022-10-03T10:06:25.130Z,93.52
2022-10-03T10:09:31.212Z,94.12
2022-10-03T10:12:30.694Z,93.80
2022-10-03T10:15:16.602Z,93.80
2022-10-03T10:17:54.369Z,93.43
2022-10-03T10:20:47.565Z,93.64
2022-10-03T10:23:47.251Z,93.90
2022-10-03T10:26:45.440Z,94.19
2022-10-03T10:29:55.706Z,93.60
2022-10-03T10:32:46.090Z,94.21
2022-10-03T10:35:39.215Z,93.90
2022-10-03T10:38:38.748Z,93.81
2022-10-03T10:41:41.335Z,93.83
2022-10-03T10:44:44.503Z,93.73
2022-10-03T10:47:25.222Z,93.72
2022-10-03T10:50:18.385Z,94.08
2022-10-03T10:53:24.365Z,93.70
2022-10-03T10:56:20.815Z,93.29
2022-10-03T10:59:23.351Z,94.07
2022-10-03T11:02:16.763Z,93.67
2022-10-03T11:05:04.615Z,93.48
2022-10-03T11:08:03.334Z,93.50
2022-10-03T11:11:23.045Z,93.46
2022-10-03T11:14:28.942Z,93.87
2022-10-03T11:17:39.746Z,93.46
2022-10-03T11:20:40.056Z,93.01
2022-10-03T11:23:38.929Z,93.52
2022-10-03T11:26:44.641Z,93.88
2022-10-03T11:29:32.020Z,93.91
2022-10-03T11:32:18.925Z,93.72
2022-10-03T11:35:42.172Z,93.74
2022-10-03T11:38:26.119Z,94.09
2022-10-03T11:41:13.212Z,93.42
2022-10-03T11:43:56.368Z,93.82
2022-10-03T11:46:46.065Z,93.68
2022-10-03T11:49:33.341Z,93.36
2022-10-03T11:52:16.813Z,93.87
2022-10-03T11:54:49.276Z,93.64
2022-10-03T11:57:37.417Z,93.44
2022-10-03T12:00:14.928Z,93.84
2022-10-03T12:03:05.198Z,93.92
2022-10-03T12:05:35.256Z,93.73
2022-10-03T12:08:44.776Z,93.59
2022-10-03T12:11:28.860Z,94.12
2022-10-03T12:14:29.699Z,93.59
2022-10-03T12:17:03.741Z,93.71
2022-10-03T12:19:50.576Z,93.65
2022-10-03T12:22:37.107Z,93.56
2022-10-03T12:25:37.370Z,94.10
2022-10-03T12:28:06.430Z,93.51
2022-10-03T12:30:55.987Z,93.92
2022-10-03T12:33:33.678Z,93.95
2022-10-03T12:36:16.887Z,93.39
2022-10-03T12:39:10.028Z,93.94
2022-10-03T12:41:59.522Z,94.21
2022-10-03T12:44:53.926Z,94.13
2022-10-03T12:47:57.566Z,93.81
2022-10-03T12:51:05.707Z,93.76
2022-10-03T12:54:20.815Z,94.19
2022-10-03T12:57:09.982Z,94.20
2022-10-03T13:00:07.784Z,94.41
2022-10-03T13:02:58.857Z,93.54
2022-10-03T13:05:41.371Z,93.93
2022-10-03T13:08:51.930Z,93.80
2022-10-03T13:11:33.545Z,93.58
2022-10-03T13:14:08.198Z,93.69
2022-10-03T13:16:51.388Z,94.21
2022-10-03T13:19:27.792Z,93.83
2022-10-03T13:22:31.670Z,93.97
2022-10-03T13:25:42.045Z,94.08
2022-10-03T13:28:19.304Z,94.06
2022-10-03T13:30:57.088Z,94.39
2022-10-03T13:33:43.104Z,94.38
2022-10-03T13:36:48.876Z,93.86
2022-10-03T13:39:27.564Z,94.17
2022-10-03T13:42:19.802Z,93.66
2022-10-03T13:44:59.706Z,93.96
2022-10-03T13:47:44.118Z,94.46
2022-10-03T13:50:43.235Z,93.79
2022-10-03T13:53:59.414Z,93.77
2022-10-03T13:56:50.373Z,94.50
2022-10-03T13:59:42.119Z,94.40
2022-10-03T14:02:30.678Z,93.99
2022-10-03T14:05:24.156Z,94.35
2022-10-03T14:08:05.087Z,94.53
2022-10-03T14:11:05.819Z,94.36
2022-10-03T14:14:05.478Z,94.28
2022-10-03T14:16:54.909Z,94.34
2022-10-03T14:19:28.021Z,94.49
2022-10-03T14:22:15.499Z,93.85
2022-10-03T14:24:50.060Z,94.42
2022-10-03T14:27:30.895Z,94.46
2022-10-03T14:30:14.250Z,94.32
2022-10-03T14:32:49.072Z,94.55
2022-10-03T14:35:24.335Z,94.39
2022-10-03T14:38:24.382Z,93.92
2022-10-03T14:41:04.571Z,94.44
2022-10-03T14:44:13.235Z,94.48
2022-10-03T14:47:04.117Z,94.16
2022-10-03T14:49:57.864Z,94.40
2022-10-03T14:52:39.705Z,94.28
2022-10-03T14:55:23.517Z,94.04
2022-10-03T14:58:10.224Z,94.68
2022-10-03T15:00:56.068Z,93.88
2022-10-03T15:03:34.135Z,94.18
2022-10-03T15:06:12.042Z,94.60
2022-10-03T15:08:46.068Z,93.89
2022-10-03T15:11:17.846Z,94.58
2022-10-03T15:13:58.441Z,93.96
2022-10-03T15:16:27.950Z,93.85
2022-10-03T15:19:07.003Z,94.49
2022-10-03T15:21:36.708Z,94.32
2022-10-03T15:24:13.295Z,94.15
2022-10-03T15:26:43.973Z,93.88
2022-10-03T15:29:17.769Z,94.51
2022-10-03T15:31:49.709Z,94.24
2022-10-03T15:34:25.968Z,93.87
2022-10-03T15:37:01.110Z,94.22
2022-10-03T15:39:38.364Z,94.09
2022-10-03T15:42:10.158Z,94.26
2022-10-03T15:44:56.464Z,94.46
2022-10-03T15:47:28.549Z,94.18
2022-10-03T15:50:30.610Z,94.64
2022-10-03T15:53:31.562Z,94.71
2022-10-03T15:56:13.219Z,94.16
2022-10-03T15:58:51.437Z,94.43
2022-10-03T16:01:26.906Z,94.02
2022-10-03T16:04:03.097Z,93.86
2022-10-03T16:06:40.442Z,94.66
2022-10-03T16:09:22.578Z,94.58
2022-10-03T16:12:15.951Z,94.25
2022-10-03T16:15:18.987Z,94.43
2022-10-03T16:17:55.635Z,94.65
2022-10-03T16:20:33.516Z,94.71
2022-10-03T16:23:21.771Z,93.80
2022-10-03T16:25:53.594Z,94.07
2022-10-03T16:28:29.692Z,94.71
2022-10-03T16:31:13.984Z,94.77
2022-10-03T16:33:57.265Z,94.08
2022-10-03T16:36:27.505Z,93.82
2022-10-03T16:39:05.173Z,94.53
2022-10-03T16:41:41.406Z,94.29
2022-10-03T16:44:29.128Z,94.51
2022-10-03T16:47:04.061Z,94.14
2022-10-03T16:50:06.108Z,94.17
2022-10-03T16:52:38.089Z,94.26
2022-10-03T16:55:23.108Z,94.59
2022-10-03T16:57:59.416Z,94.15
2022-10-03T17:01:09.417Z,93.77
2022-10-03T17:03:46.425Z,94.60
2022-10-03T17:06:38.563Z,94.12
2022-10-03T17:09:40.737Z,93.90
2022-10-03T17:12:34.419Z,94.16
2022-10-03T17:15:06.981Z,93.90
2022-10-03T17:18:00.408Z,93.92
2022-10-03T17:20:41.657Z,94.11
2022-10-03T17:23:25.713Z,94.08
2022-10-03T17:26:02.996Z,94.28
2022-10-03T17:29:02.486Z,94.42
2022-10-03T17:31:31.407Z,94.57
2022-10-03T17:34:13.233Z,94.20
2022-10-03T17:37:00.560Z,94.23
2022-10-03T17:39:40.838Z,94.15
2022-10-03T17:42:32.074Z,93.77
2022-10-03T17:45:17.314Z,94.63
2022-10-03T17:47:56.638Z,94.40
2022-10-03T17:50:58.055Z,94.46
2022-10-03T17:53:37.619Z,94.40
2022-10-03T17:56:10.002Z,94.04
2022-10-03T17:58:44.655Z,94.34
2022-10-03T18:01:19.012Z,94.06
2022-10-03T18:04:05.365Z,94.45
2022-10-03T18:06:45.621Z,93.99
2022-10-03T18:09:17.812Z,94.26
2022-10-03T18:11:50.601Z,94.46
2022-10-03T18:14:19.264Z,94.45
2022-10-03T18:17:03.511Z,94.13
2022-10-03T18:19:41.333Z,94.14
2022-10-03T18:22:17.933Z,94.04
2022-10-03T18:25:29.711Z,94.57
2022-10-03T18:28:17.597Z,94.04
2022-10-03T18:31:03.881Z,93.84
2022-10-03T18:33:55.598Z,93.90
2022-10-03T18:36:32.475Z,94.29
2022-10-03T18:39:07.090Z,93.78
2022-10-03T18:41:35.975Z,94.11
2022-10-03T18:44:05.144Z,93.83
2022-10-03T18:46:41.819Z,93.89
2022-10-03T18:49:33.477Z,94.00
2022-10-03T18:52:12.043Z,94.65
2022-10-03T18:55:01.065Z,94.04
2022-10-03T18:57:38.615Z,94.48
2022-10-03T19:00:18.901Z,93.94
2022-10-03T19:03:03.784Z,94.51
2022-10-03T19:05:45.212Z,94.54
2022-10-03T19:08:36.801Z,94.20
2022-10-03T19:11:29.950Z,94.42
2022-10-03T19:14:07.791Z,93.83
2022-10-03T19:16:58.773Z,94.33
2022-10-03T19:19:56.542Z,94.03
2022-10-03T19:23:00.531Z,94.34
2022-10-03T19:25:30.481Z,94.33
2022-10-03T19:28:05.678Z,94.20
2022-10-03T19:30:36.581Z,94.02
2022-10-03T19:33:13.654Z,94.32
2022-10-03T19:35:48.564Z,94.67
2022-10-03T19:38:34.772Z,94.26
2022-10-03T19:41:08.601Z,93.95
2022-10-03T19:43:50.129Z,93.96
2022-10-03T19:46:48.373Z,94.18
2022-10-03T19:49:22.428Z,94.26
2022-10-03T19:51:51.971Z,94.68
2022-10-03T19:54:44.134Z,93.88
2022-10-03T19:57:26.265Z,94.45
2022-10-03T20:00:06.880Z,94.07
2022-10-03T20:02:41.454Z,94.14
2022-10-03T20:05:23.554Z,94.08
2022-10-03T20:08:05.287Z,93.95
2022-10-03T20:10:48.406Z,94.36
2022-10-03T20:13:17.304Z,93.82
2022-10-03T20:15:48.958Z,93.75
2022-10-03T20:18:35.269Z,94.12
2022-10-03T20:21:11.486Z,93.80
2022-10-03T20:23:43.352Z,93.74
2022-10-03T20:26:19.913Z,93.92
2022-10-03T20:29:39.353Z,93.91
2022-10-03T20:32:16.859Z,94.10
2022-10-03T20:34:52.715Z,94.25
2022-10-03T20:37:49.958Z,94.25
2022-10-03T20:40:29.821Z,94.07
2022-10-03T20:43:27.735Z,94.36
2022-10-03T20:46:25.964Z,94.26
2022-10-03T20:49:35.512Z,93.97
2022-10-03T20:52:07.593Z,94.15
2022-10-03T20:54:48.104Z,94.48
2022-10-03T20:57:42.650Z,94.08
2022-10-03T21:00:15.903Z,94.14
2022-10-03T21:02:59.911Z,94.33
2022-10-03T21:05:37.822Z,94.66
2022-10-03T21:08:25.085Z,94.43
2022-10-03T21:11:03.397Z,94.82
2022-10-03T21:13:44.820Z,94.15
2022-10-03T21:16:26.087Z,94.13
2022-10-03T21:19:00.964Z,94.77
2022-10-03T21:21:43.045Z,94.64
2022-10-03T21:24:25.022Z,94.21
2022-10-03T21:26:53.770Z,93.96
2022-10-03T21:29:25.463Z,93.82
2022-10-03T21:32:12.432Z,94.56
2022-10-03T21:35:09.834Z,94.11
2022-10-03T21:37:57.672Z,94.13
2022-10-03T21:40:54.061Z,93.80
2022-10-03T21:43:59.019Z,94.26
2022-10-03T21:46:43.584Z,93.71
2022-10-03T21:49:53.996Z,94.04
2022-10-03T21:52:28.316Z,93.91
2022-10-03T21:55:11.293Z,94.17
2022-10-03T21:58:04.331Z,94.46
2022-10-03T22:00:59.684Z,94.25
2022-10-03T22:03:46.954Z,94.20
2022-10-03T22:06:21.596Z,94.11
2022-10-03T22:08:50.946Z,94.19
2022-10-03T22:11:46.344Z,94.46
2022-10-03T22:14:27.088Z,94.50
2022-10-03T22:17:01.309Z,94.52
2022-10-03T22:19:39.857Z,94.28
2022-10-03T22:22:24.505Z,94.07
2022-10-03T22:25:10.759Z,94.60
2022-10-03T22:28:02.510Z,93.91
2022-10-03T22:30:37.662Z,94.34
2022-10-03T22:33:22.750Z,94.28
2022-10-03T22:36:00.387Z,94.03
2022-10-03T22:38:32.330Z,94.55
2022-10-03T22:41:04.008Z,94.36
2022-10-03T22:43:36.874Z,94.20
2022-10-03T22:46:08.140Z,94.09
2022-10-03T22:48:49.788Z,94.26
2022-10-03T22:51:21.945Z,94.13
2022-10-03T22:53:57.604Z,94.10
2022-10-03T22:56:35.158Z,94.38
2022-10-03T22:59:08.985Z,94.26
2022-10-03T23:01:46.070Z,94.46
2022-10-03T23:04:23.353Z,93.83
2022-10-03T23:07:12.242Z,94.49
2022-10-03T23:09:59.585Z,94.50
2022-10-03T23:12:37.522Z,94.36
2022-10-03T23:15:09.751Z,94.58
2022-10-03T23:18:10.995Z,94.22
2022-10-03T23:21:09.377Z,94.55
2022-10-03T23:23:51.791Z,94.57
2022-10-03T23:26:54.298Z,94.42
2022-10-03T23:29:23.339Z,94.30
2022-10-03T23:31:54.896Z,94.29
2022-10-03T23:34:36.057Z,94.33
2022-10-03T23:37:14.182Z,94.00
2022-10-03T23:39:44.668Z,93.59
2022-10-03T23:42:39.366Z,94.54
2022-10-03T23:45:08.065Z,94.37
2022-10-03T23:47:52.342Z,94.37
2022-10-03T23:50:26.264Z,94.24
2022-10-03T23:52:59.715Z,94.08
2022-10-03T23:55:32.428Z,94.00
2022-10-03T23:58:01.825Z,94.29
